Time;durP1;ratioP1;P1;durP2;ratioP2;P2;SDS_P1;SDS_P2;PMS_P1;PMS_P2;Temp;Humidity;BMP_temperature;BMP_pressure;BME280_temperature;BME280_humidity;BME280_pressure;Samples;Min_cycle;Max_cycle;Signal;HPM_P1;HPM_P2
2021/07/25 00:02:27;;;;;;;0.40;0.20;;;;;;;19.22;100.00;99529.59;5011535;28;20518;-55
2021/07/25 00:04:54;;;;;;;0.40;0.30;;;;;;;19.41;100.00;99530.84;4996607;28;20511;-55
2021/07/25 00:07:21;;;;;;;0.40;0.20;;;;;;;19.12;100.00;99536.63;5011979;28;20507;-54
2021/07/25 00:09:48;;;;;;;0.40;0.20;;;;;;;19.11;100.00;99536.75;5007995;28;20543;-54
2021/07/25 00:12:15;;;;;;;0.40;0.30;;;;;;;18.92;100.00;99538.16;4993830;28;21065;-54
2021/07/25 00:14:42;;;;;;;0.40;0.20;;;;;;;18.92;100.00;99538.16;5006884;28;20941;-54
2021/07/25 00:17:08;;;;;;;0.43;0.20;;;;;;;18.89;100.00;99540.19;5003532;28;20480;-55
2021/07/25 00:19:36;;;;;;;2.83;0.87;;;;;;;19.00;100.00;99544.78;5003057;28;20477;-54
2021/07/25 00:22:04;;;;;;;0.67;0.67;;;;;;;19.06;100.00;99544.34;5011795;28;20510;-54
2021/07/25 00:24:34;;;;;;;6.00;0.83;;;;;;;19.00;100.00;99544.78;5006923;28;20481;-54
2021/07/25 00:27:02;;;;;;;0.40;0.30;;;;;;;18.96;100.00;99548.69;4992890;28;20460;-55
2021/07/25 00:29:30;;;;;;;1.27;0.87;;;;;;;18.93;100.00;99534.50;5010227;28;20481;-54
2021/07/25 00:32:04;;;;;;;2.10;1.07;;;;;;;18.89;100.00;99542.88;4999255;28;20501;-54
2021/07/25 00:34:34;;;;;;;0.50;0.30;;;;;;;18.88;100.00;99531.25;5007586;28;20448;-54
2021/07/25 00:37:01;;;;;;;0.40;0.20;;;;;;;18.97;100.00;99535.09;5004883;28;21014;-54
2021/07/25 00:39:28;;;;;;;0.50;0.40;;;;;;;19.01;100.00;99533.03;4992077;28;20477;-55
2021/07/25 00:41:55;;;;;;;0.50;0.50;;;;;;;18.97;100.00;99536.94;5005655;28;20528;-54
2021/07/25 00:44:21;;;;;;;0.40;0.20;;;;;;;18.92;100.00;99534.59;4991554;28;20520;-54
2021/07/25 00:47:00;;;;;;;0.40;0.30;;;;;;;19.08;100.00;99532.47;5004383;28;20875;-54
2021/07/25 00:49:28;;;;;;;3.80;1.07;;;;;;;18.99;100.00;99533.16;5008697;28;20475;-55
2021/07/25 00:51:55;;;;;;;0.40;0.20;;;;;;;18.91;100.00;99530.16;5006702;28;20520;-53
2021/07/25 00:54:22;;;;;;;0.63;0.57;;;;;;;18.69;100.00;99544.38;4991118;28;20464;-54
2021/07/25 00:56:49;;;;;;;0.50;0.47;;;;;;;18.69;100.00;99543.53;5004233;28;20927;-54
2021/07/25 00:59:16;;;;;;;0.50;0.40;;;;;;;18.83;100.00;99527.22;5001618;28;20562;-53
2021/07/25 01:01:43;;;;;;;3.57;3.47;;;;;;;18.73;100.00;99539.63;5010912;28;20455;-54
2021/07/25 01:04:43;;;;;;;0.40;0.20;;;;;;;18.75;100.00;99538.53;5010963;28;20514;-54
2021/07/25 01:07:33;;;;;;;0.50;0.30;;;;;;;18.97;100.00;99523.47;4997671;28;20535;-54
2021/07/25 01:10:07;;;;;;;0.60;0.60;;;;;;;18.87;100.00;99518.78;5009626;28;20479;-53
2021/07/25 01:12:57;;;;;;;0.40;0.20;;;;;;;18.74;100.00;99517.09;5007893;28;20446;-53
2021/07/25 01:15:27;;;;;;;0.40;0.20;;;;;;;18.65;100.00;99505.22;4999166;28;20454;-54
2021/07/25 01:17:54;;;;;;;3.43;1.90;;;;;;;18.53;100.00;99500.69;5008165;28;20508;-54
2021/07/25 01:20:22;;;;;;;0.40;0.20;;;;;;;18.61;100.00;99514.44;5005999;28;20484;-53
2021/07/25 01:22:51;;;;;;;0.40;0.30;;;;;;;18.59;100.00;99525.31;5014542;28;20487;-54
2021/07/25 01:25:21;;;;;;;0.40;0.20;;;;;;;18.58;100.00;99522.75;4998981;28;20939;-54
2021/07/25 01:28:07;;;;;;;1.43;1.33;;;;;;;18.43;100.00;99519.34;5009152;28;20523;-53
2021/07/25 01:30:38;;;;;;;0.40;0.20;;;;;;;18.44;100.00;99520.22;4996742;28;20531;-54
2021/07/25 01:33:11;;;;;;;1.80;1.80;;;;;;;18.55;100.00;99513.06;5010135;28;20463;-54
2021/07/25 01:35:40;;;;;;;0.73;0.50;;;;;;;18.23;100.00;99509.19;4999583;28;20480;-55
2021/07/25 01:38:07;;;;;;;0.40;0.20;;;;;;;18.24;100.00;99510.91;4998042;28;20465;-54
2021/07/25 01:40:34;;;;;;;0.40;0.20;;;;;;;18.14;100.00;99510.72;4997084;28;20476;-54
2021/07/25 01:43:02;;;;;;;0.50;0.33;;;;;;;18.38;100.00;99499.16;5004947;28;20512;-54
2021/07/25 01:45:28;;;;;;;2.30;2.20;;;;;;;18.26;100.00;99504.44;4996058;28;20864;-54
2021/07/25 01:47:55;;;;;;;1.33;1.23;;;;;;;18.30;100.00;99518.53;5007656;28;20514;-54
2021/07/25 01:50:21;;;;;;;1.63;1.40;;;;;;;18.25;100.00;99518.00;5016124;28;21055;-54
2021/07/25 01:52:48;;;;;;;0.40;0.20;;;;;;;18.28;100.00;99520.47;5014531;28;20496;-53
2021/07/25 01:55:15;;;;;;;0.40;0.30;;;;;;;18.14;100.00;99532.22;5001527;28;20826;-54
2021/07/25 01:57:42;;;;;;;3.50;0.93;;;;;;;18.16;100.00;99530.28;5005307;28;20544;-54
2021/07/25 02:00:09;;;;;;;0.50;0.30;;;;;;;18.24;100.00;99536.00;4997817;28;20485;-54
2021/07/25 02:02:36;;;;;;;0.60;0.57;;;;;;;18.31;100.00;99533.69;5014018;28;20511;-54
2021/07/25 02:05:05;;;;;;;1.80;1.60;;;;;;;18.35;100.00;99543.25;5009823;28;20461;-54
2021/07/25 02:07:32;;;;;;;0.40;0.20;;;;;;;18.49;100.00;99540.41;5006700;28;20476;-54
2021/07/25 02:09:58;;;;;;;0.60;0.60;;;;;;;18.47;100.00;99542.38;5009119;28;20531;-55
2021/07/25 02:12:25;;;;;;;0.40;0.30;;;;;;;18.49;100.00;99535.03;5004643;28;20543;-53
2021/07/25 02:14:52;;;;;;;0.40;0.20;;;;;;;18.55;100.00;99522.97;5016978;28;20519;-54
2021/07/25 02:17:18;;;;;;;0.47;0.37;;;;;;;18.61;100.00;99530.59;5012682;28;20457;-54
2021/07/25 02:19:45;;;;;;;0.50;0.30;;;;;;;18.55;100.00;99523.84;5007483;28;20975;-55
2021/07/25 02:22:12;;;;;;;0.67;0.67;;;;;;;18.62;100.00;99533.16;5000538;28;20870;-53
2021/07/25 02:24:40;;;;;;;0.40;0.30;;;;;;;18.61;100.00;99531.44;5007415;28;20428;-54
2021/07/25 02:27:07;;;;;;;0.40;0.20;;;;;;;18.43;100.00;99530.13;4994488;28;20962;-54
2021/07/25 02:29:33;;;;;;;0.40;0.30;;;;;;;18.39;100.00;99522.38;5001447;28;20455;-53
2021/07/25 02:32:00;;;;;;;0.40;0.20;;;;;;;18.70;100.00;99518.31;5000365;28;20517;-54
2021/07/25 02:34:27;;;;;;;0.40;0.20;;;;;;;18.77;100.00;99519.56;5011311;28;20435;-54
2021/07/25 02:36:53;;;;;;;0.40;0.30;;;;;;;18.70;100.00;99518.31;5007435;28;20978;-53
2021/07/25 02:39:20;;;;;;;0.40;0.20;;;;;;;18.72;100.00;99514.53;5011898;28;21048;-54
2021/07/25 02:41:47;;;;;;;2.33;0.77;;;;;;;18.66;100.00;99527.59;5002936;28;20457;-54
2021/07/25 02:44:13;;;;;;;0.40;0.30;;;;;;;18.76;100.00;99526.78;5003244;28;20504;-53
2021/07/25 02:46:40;;;;;;;0.40;0.20;;;;;;;18.80;100.00;99532.81;5006663;28;20884;-54
2021/07/25 02:49:07;;;;;;;0.60;0.60;;;;;;;18.83;100.00;99536.13;5001689;28;20450;-54
2021/07/25 02:51:34;;;;;;;0.50;0.30;;;;;;;18.86;100.00;99529.66;5011811;28;20461;-54
2021/07/25 02:54:00;;;;;;;0.40;0.20;;;;;;;18.85;100.00;99519.88;5001981;28;20472;-54
2021/07/25 02:56:27;;;;;;;1.53;1.53;;;;;;;18.92;100.00;99527.38;5013154;28;20432;-54
2021/07/25 02:58:54;;;;;;;0.40;0.30;;;;;;;19.00;100.00;99517.84;5013168;28;20537;-54
2021/07/25 03:01:20;;;;;;;0.40;0.30;;;;;;;19.06;100.00;99533.56;5013251;28;20452;-55
2021/07/25 03:03:47;;;;;;;1.70;1.60;;;;;;;19.15;100.00;99530.16;5004816;28;20449;-54
2021/07/25 03:06:14;;;;;;;0.40;0.20;;;;;;;19.03;100.00;99523.84;5008264;28;20504;-54
2021/07/25 03:08:40;;;;;;;0.40;0.20;;;;;;;19.15;100.00;99522.94;5009752;28;20873;-54
2021/07/25 03:11:08;;;;;;;0.40;0.30;;;;;;;19.14;100.00;99531.13;5012503;28;20457;-54
2021/07/25 03:13:36;;;;;;;0.67;0.67;;;;;;;19.15;100.00;99530.16;5012717;28;20488;-54
2021/07/25 03:16:05;;;;;;;0.40;0.20;;;;;;;19.19;100.00;99537.91;5002502;28;20461;-54
2021/07/25 03:18:32;;;;;;;0.40;0.20;;;;;;;19.28;100.00;99538.16;5012237;28;21017;-53
2021/07/25 03:20:59;;;;;;;0.40;0.20;;;;;;;19.26;100.00;99538.28;5012432;28;20514;-54
2021/07/25 03:23:26;;;;;;;0.50;0.50;;;;;;;19.23;100.00;99533.13;5011015;28;20449;-55
2021/07/25 03:25:53;;;;;;;0.40;0.20;;;;;;;19.26;100.00;99542.81;5000212;28;20595;-54
2021/07/25 03:28:20;;;;;;;0.40;0.20;;;;;;;19.31;100.00;99536.06;5012802;28;20456;-54
2021/07/25 03:30:47;;;;;;;0.40;0.30;;;;;;;19.36;100.00;99541.13;5012236;28;20476;-54
2021/07/25 03:33:14;;;;;;;0.73;0.73;;;;;;;19.34;100.00;99543.97;4998017;28;20485;-53
2021/07/25 03:35:41;;;;;;;0.40;0.20;;;;;;;19.40;100.00;99542.59;4994002;28;20515;-54
2021/07/25 03:38:08;;;;;;;0.40;0.20;;;;;;;19.35;100.00;99551.06;5009619;28;20950;-54
2021/07/25 03:40:35;;;;;;;0.60;0.60;;;;;;;19.32;100.00;99543.19;5012135;28;20477;-55
2021/07/25 03:43:02;;;;;;;0.50;0.50;;;;;;;19.32;100.00;99543.19;5002357;28;20478;-54
2021/07/25 03:45:29;;;;;;;0.50;0.40;;;;;;;19.22;100.00;99540.34;4995564;28;20456;-54
2021/07/25 03:47:56;;;;;;;1.13;1.13;;;;;;;19.23;100.00;99541.22;5011998;28;20452;-54
2021/07/25 03:50:23;;;;;;;0.60;0.60;;;;;;;19.16;100.00;99548.88;4995341;28;20448;-54
2021/07/25 03:52:49;;;;;;;0.60;0.60;;;;;;;19.21;100.00;99544.03;4992808;28;20481;-54
2021/07/25 03:55:16;;;;;;;0.40;0.20;;;;;;;19.22;100.00;99543.06;4994483;28;20516;-55
2021/07/25 03:57:44;;;;;;;0.40;0.20;;;;;;;19.28;100.00;99546.25;4993103;28;20530;-54
2021/07/25 04:00:11;;;;;;;0.40;0.20;;;;;;;19.32;100.00;99548.56;4995738;28;20570;-55
2021/07/25 04:02:38;;;;;;;0.50;0.40;;;;;;;19.23;100.00;99542.06;5012334;28;20868;-54
2021/07/25 04:05:05;;;;;;;6.33;1.17;;;;;;;19.22;100.00;99548.44;4994745;28;20461;-54
2021/07/25 04:07:32;;;;;;;0.40;0.40;;;;;;;19.53;100.00;99548.78;5001424;28;20439;-54
2021/07/25 04:09:58;;;;;;;2.63;0.80;;;;;;;19.42;100.00;99552.28;5005981;28;20507;-54
2021/07/25 04:12:25;;;;;;;0.93;0.93;;;;;;;19.55;100.00;99540.59;5003570;28;20554;-54
2021/07/25 04:14:51;;;;;;;0.40;0.20;;;;;;;19.26;100.00;99551.75;5010265;28;20460;-54
2021/07/25 04:17:18;;;;;;;0.40;0.40;;;;;;;19.35;100.00;99545.66;4992725;28;20982;-54
2021/07/25 04:19:45;;;;;;;0.40;0.20;;;;;;;19.28;100.00;99549.78;4992622;28;20473;-54
2021/07/25 04:22:11;;;;;;;0.50;0.40;;;;;;;19.10;100.00;99549.38;4998088;28;20974;-54
2021/07/25 04:24:38;;;;;;;0.50;0.50;;;;;;;19.12;100.00;99557.34;5000711;28;20454;-54
2021/07/25 04:27:05;;;;;;;0.40;0.20;;;;;;;19.07;100.00;99557.69;4992683;28;20457;-54
2021/07/25 04:29:32;;;;;;;1.03;1.03;;;;;;;18.99;100.00;99561.94;5010841;28;20921;-54
2021/07/25 04:31:58;;;;;;;0.40;0.20;;;;;;;19.28;100.00;99559.72;5011747;28;20452;-54
2021/07/25 04:34:25;;;;;;;0.40;0.20;;;;;;;19.16;100.00;99569.59;4993011;28;20485;-55
2021/07/25 04:36:52;;;;;;;0.40;0.20;;;;;;;19.27;100.00;99563.41;5005301;28;20527;-54
2021/07/25 04:39:19;;;;;;;0.40;0.20;;;;;;;19.17;100.00;99569.47;5014986;28;20895;-54
2021/07/25 04:41:52;;;;;;;0.50;0.30;;;;;;;19.18;100.00;99568.50;5015662;28;20448;-54
2021/07/25 04:44:28;;;;;;;0.40;0.27;;;;;;;19.04;100.00;99560.59;5011142;28;20456;-54
2021/07/25 04:47:02;;;;;;;1.07;1.07;;;;;;;19.28;100.00;99557.03;5011107;28;20465;-54
2021/07/25 04:49:37;;;;;;;0.80;0.80;;;;;;;19.31;100.00;99565.72;5005533;28;20586;-54
2021/07/25 04:52:06;;;;;;;0.40;0.23;;;;;;;19.31;100.00;99563.03;5015137;28;20875;-54
2021/07/25 04:54:35;;;;;;;1.03;0.67;;;;;;;19.44;100.00;99576.44;5015544;28;20534;-53
2021/07/25 04:57:05;;;;;;;0.40;0.20;;;;;;;19.88;100.00;99570.34;4997372;28;21025;-54
2021/07/25 04:59:46;;;;;;;0.40;0.20;;;;;;;20.43;100.00;99567.81;5007726;28;20539;-54
2021/07/25 05:02:17;;;;;;;0.40;0.30;;;;;;;20.39;100.00;99562.59;5011355;28;20883;-54
2021/07/25 05:04:47;;;;;;;0.40;0.30;;;;;;;20.53;100.00;99560.66;5014429;28;20967;-54
2021/07/25 05:07:15;;;;;;;1.03;0.77;;;;;;;20.75;100.00;99554.38;5015379;28;20885;-55
2021/07/25 05:09:42;;;;;;;3.90;0.73;;;;;;;20.60;100.00;99551.94;5012061;28;20447;-54
2021/07/25 05:12:13;;;;;;;0.50;0.47;;;;;;;20.47;100.00;99559.34;5005307;28;20497;-54
2021/07/25 05:14:47;;;;;;;0.40;0.20;;;;;;;20.24;100.00;99557.59;5008286;28;20456;-54
2021/07/25 05:17:22;;;;;;;0.50;0.37;;;;;;;20.24;100.00;99560.28;5004514;28;20503;-54
2021/07/25 05:19:48;;;;;;;0.40;0.20;;;;;;;20.30;100.00;99560.66;5014519;28;20472;-55
2021/07/25 05:22:47;;;;;;;1.63;1.63;;;;;;;20.69;100.00;99559.28;5014929;28;20966;-54
2021/07/25 05:25:17;;;;;;;1.80;0.63;;;;;;;20.96;100.00;99553.44;4998937;28;20882;-54
2021/07/25 05:27:47;;;;;;;0.60;0.60;;;;;;;21.09;100.00;99557.81;5013416;28;20461;-54
2021/07/25 05:30:17;;;;;;;0.50;0.47;;;;;;;21.19;100.00;99556.06;5014727;28;20534;-54
2021/07/25 05:32:44;;;;;;;0.60;0.60;;;;;;;21.59;100.00;99548.16;5000320;28;20553;-53
2021/07/25 05:35:12;;;;;;;0.40;0.20;;;;;;;22.05;100.00;99555.84;5014391;28;20538;-54
2021/07/25 05:37:39;;;;;;;0.70;0.70;;;;;;;22.25;100.00;99561.38;5007704;28;20461;-54
2021/07/25 05:40:07;;;;;;;13.13;3.30;;;;;;;22.11;100.00;99552.63;5007821;28;20513;-54
2021/07/25 05:42:34;;;;;;;3.30;1.60;;;;;;;22.06;100.00;99554.84;5002050;28;20515;-54
2021/07/25 05:45:01;;;;;;;0.40;0.30;;;;;;;21.81;100.00;99553.44;5001450;28;20453;-56
2021/07/25 05:47:28;;;;;;;1.27;1.27;;;;;;;21.97;100.00;99555.66;4995687;28;20846;-54
2021/07/25 05:49:54;;;;;;;1.73;1.73;;;;;;;21.77;100.00;99560.06;5008854;28;20480;-55
2021/07/25 05:52:21;;;;;;;0.40;0.30;;;;;;;21.41;100.00;99563.25;4995175;28;20457;-55
2021/07/25 05:54:48;;;;;;;0.50;0.40;;;;;;;21.08;100.00;99566.91;5008445;28;20563;-55
2021/07/25 05:57:15;;;;;;;0.40;0.20;;;;;;;20.86;100.00;99576.81;5014354;28;20571;-54
2021/07/25 05:59:41;;;;;;;0.40;0.20;;;;;;;20.63;100.00;99567.03;5001619;28;20968;-54
2021/07/25 06:02:08;;;;;;;0.40;0.30;;;;;;;20.87;100.00;99564.16;5014260;28;20507;-54
2021/07/25 06:04:35;;;;;;;1.73;0.53;;;;;;;20.98;100.00;99570.41;5013391;28;20916;-55
2021/07/25 06:07:02;;;;;;;0.60;0.60;;;;;;;21.21;100.00;99576.56;5001783;28;20975;-55
2021/07/25 06:09:28;;;;;;;0.63;0.57;;;;;;;21.50;100.00;99584.94;5012664;28;20476;-55
2021/07/25 06:11:56;;;;;;;0.50;0.43;;;;;;;21.41;100.00;99590.31;4998121;28;20508;-54
2021/07/25 06:14:23;;;;;;;0.63;0.63;;;;;;;21.64;100.00;99585.63;5009595;28;20843;-56
2021/07/25 06:16:49;;;;;;;3.10;1.77;;;;;;;21.76;100.00;99582.72;4998232;28;20465;-54
2021/07/25 06:19:16;;;;;;;1.27;1.23;;;;;;;22.14;100.00;99590.25;5007186;28;20519;-54
2021/07/25 06:21:46;;;;;;;0.63;0.60;;;;;;;22.59;100.00;99589.00;5013919;28;20460;-55
2021/07/25 06:24:12;;;;;;;0.40;0.30;;;;;;;22.07;100.00;99599.06;5011132;28;20435;-54
2021/07/25 06:26:39;;;;;;;2.50;0.60;;;;;;;22.18;100.00;99602.50;4994519;28;20455;-54
2021/07/25 06:29:05;;;;;;;0.40;0.20;;;;;;;21.59;100.00;99603.09;4996612;28;20456;-55
2021/07/25 06:31:32;;;;;;;0.40;0.20;;;;;;;21.74;100.00;99611.75;5003091;28;20434;-55
2021/07/25 06:34:01;;;;;;;0.40;0.30;;;;;;;21.13;100.00;99613.34;4997560;28;20466;-54
2021/07/25 06:36:27;;;;;;;1.60;0.50;;;;;;;21.28;100.00;99607.56;5010144;28;20942;-55
2021/07/25 06:38:54;;;;;;;1.83;1.13;;;;;;;20.46;100.00;99610.75;5007278;28;20485;-54
2021/07/25 06:41:21;;;;;;;0.40;0.30;;;;;;;20.88;100.00;99601.00;5008629;28;21024;-54
2021/07/25 06:43:47;;;;;;;2.00;1.17;;;;;;;20.78;100.00;99611.69;5010865;28;20449;-54
2021/07/25 06:46:14;;;;;;;0.60;0.60;;;;;;;20.94;100.00;99608.59;5005819;28;20480;-54
2021/07/25 06:48:41;;;;;;;0.50;0.50;;;;;;;21.27;100.00;99588.75;5003164;28;20796;-54
2021/07/25 06:51:07;;;;;;;0.40;0.30;;;;;;;21.37;100.00;99599.63;4997733;28;20504;-54
2021/07/25 06:53:34;;;;;;;1.23;1.13;;;;;;;21.47;100.00;99606.00;4998779;28;20460;-54
2021/07/25 06:56:03;;;;;;;2.00;1.90;;;;;;;21.90;100.00;99605.88;4997670;28;20453;-54
2021/07/25 06:58:31;;;;;;;0.40;0.30;;;;;;;22.06;100.00;99603.59;5005096;28;20547;-55
2021/07/25 07:00:58;;;;;;;0.40;0.30;;;;;;;22.33;100.00;99605.72;5004062;28;20427;-55
2021/07/25 07:03:25;;;;;;;3.70;0.77;;;;;;;22.52;100.00;99612.22;4999987;28;20434;-55
2021/07/25 07:05:51;;;;;;;5.70;0.63;;;;;;;22.23;100.00;99612.09;5004812;28;20779;-54
2021/07/25 07:08:21;;;;;;;0.50;0.30;;;;;;;22.88;100.00;99610.78;5000708;28;20431;-54
2021/07/25 07:10:47;;;;;;;0.40;0.20;;;;;;;23.20;100.00;99606.03;5000580;28;20476;-54
2021/07/25 07:13:17;;;;;;;0.77;0.70;;;;;;;23.43;97.62;99605.72;4998650;28;20486;-54
2021/07/25 07:15:44;;;;;;;0.60;0.60;;;;;;;23.63;97.26;99605.63;5004646;28;20457;-54
2021/07/25 07:18:11;;;;;;;0.43;0.30;;;;;;;23.24;97.23;99602.03;5004221;28;20978;-54
2021/07/25 07:20:38;;;;;;;1.70;1.60;;;;;;;23.74;95.51;99601.91;5003060;28;20482;-54
2021/07/25 07:23:08;;;;;;;0.40;0.20;;;;;;;23.75;94.60;99605.50;5008616;28;20534;-55
2021/07/25 07:25:36;;;;;;;0.40;0.30;;;;;;;23.84;92.58;99608.16;5006855;28;20797;-54
2021/07/25 07:28:04;;;;;;;0.40;0.30;;;;;;;23.98;90.76;99600.56;5006102;28;20516;-54
2021/07/25 07:30:32;;;;;;;1.13;1.13;;;;;;;23.88;92.10;99614.19;5004164;28;20550;-55
2021/07/25 07:33:16;;;;;;;0.40;0.20;;;;;;;24.18;88.92;99605.81;5000393;28;20511;-55
2021/07/25 07:35:43;;;;;;;0.57;0.50;;;;;;;24.21;89.43;99604.66;4999652;28;20510;-54
2021/07/25 07:38:11;;;;;;;0.73;0.73;;;;;;;23.81;91.02;99607.59;5000618;28;20950;-55
2021/07/25 07:40:39;;;;;;;0.40;0.20;;;;;;;23.81;91.81;99607.59;5002185;28;20484;-54
2021/07/25 07:43:08;;;;;;;0.40;0.20;;;;;;;24.58;88.85;99596.56;5003865;28;20874;-54
2021/07/25 07:45:36;;;;;;;0.50;0.40;;;;;;;24.19;89.98;99606.69;5002781;28;20435;-57
2021/07/25 07:48:04;;;;;;;0.70;0.70;;;;;;;23.87;92.49;99607.03;5004741;28;20431;-54
2021/07/25 07:50:30;;;;;;;0.40;0.20;;;;;;;24.04;88.36;99600.00;4996159;28;20477;-54
2021/07/25 07:53:00;;;;;;;0.43;0.30;;;;;;;24.59;89.45;99609.13;4993059;28;20454;-55
2021/07/25 07:55:27;;;;;;;0.50;0.30;;;;;;;24.35;89.35;99608.78;5022480;28;20866;-54
2021/07/25 07:57:53;;;;;;;0.40;0.20;;;;;;;24.54;86.92;99614.19;5005536;28;20453;-54
2021/07/25 08:00:20;;;;;;;1.30;1.20;;;;;;;24.43;87.30;99609.78;4996903;28;20964;-53
2021/07/25 08:02:47;;;;;;;0.40;0.20;;;;;;;25.01;86.84;99601.34;5003036;28;20435;-54
2021/07/25 08:05:17;;;;;;;1.03;1.03;;;;;;;24.77;86.77;99606.47;5001972;28;20502;-54
2021/07/25 08:07:44;;;;;;;3.33;0.97;;;;;;;24.68;86.34;99601.94;4995458;28;20482;-54
2021/07/25 08:10:12;;;;;;;0.50;0.40;;;;;;;24.82;83.54;99609.59;4992618;28;20465;-55
2021/07/25 08:12:39;;;;;;;0.60;0.53;;;;;;;24.19;86.49;99609.41;4998556;28;20470;-54
2021/07/25 08:15:06;;;;;;;0.40;0.30;;;;;;;24.13;87.91;99610.84;5011224;28;20466;-54
2021/07/25 08:17:33;;;;;;;0.40;0.20;;;;;;;24.63;86.61;99610.53;5000980;28;20428;-55
2021/07/25 08:20:00;;;;;;;0.53;0.50;;;;;;;24.64;88.16;99608.66;4998906;28;21008;-56
2021/07/25 08:22:27;;;;;;;1.83;1.70;;;;;;;24.27;84.74;99611.38;5004938;28;20490;-55
2021/07/25 08:24:54;;;;;;;1.23;1.23;;;;;;;24.68;85.13;99608.25;4999468;28;20502;-54
2021/07/25 08:27:20;;;;;;;1.13;1.13;;;;;;;24.65;84.55;99610.38;5005235;28;20427;-54
2021/07/25 08:29:47;;;;;;;0.40;0.30;;;;;;;24.66;87.55;99612.94;4997370;28;20961;-54
2021/07/25 08:32:14;;;;;;;0.63;0.63;;;;;;;24.75;86.28;99609.34;4992695;28;20457;-54
2021/07/25 08:34:40;;;;;;;0.50;0.40;;;;;;;24.52;88.06;99614.28;4999842;28;20493;-55
2021/07/25 08:37:08;;;;;;;0.40;0.30;;;;;;;24.48;87.77;99617.47;5005708;28;20934;-55
2021/07/25 08:39:34;;;;;;;0.40;0.27;;;;;;;24.46;85.45;99624.91;5003314;28;20474;-55
2021/07/25 08:42:04;;;;;;;0.47;0.30;;;;;;;24.41;87.92;99614.50;4994446;28;20523;-55
2021/07/25 08:44:46;;;;;;;0.60;0.60;;;;;;;24.13;90.15;99615.44;5002494;28;20449;-54
2021/07/25 08:47:36;;;;;;;1.60;1.60;;;;;;;24.03;88.95;99610.00;4995964;28;20514;-54
2021/07/25 08:50:02;;;;;;;1.13;1.13;;;;;;;24.17;90.07;99611.41;4997344;28;20547;-55
2021/07/25 08:52:34;;;;;;;1.53;1.23;;;;;;;24.47;89.75;99615.75;5001491;28;20427;-54
2021/07/25 08:55:05;;;;;;;1.13;1.03;;;;;;;24.46;88.02;99614.91;4995999;28;20500;-54
2021/07/25 08:57:37;;;;;;;0.47;0.37;;;;;;;24.15;87.96;99613.41;5001847;28;20474;-54
2021/07/25 09:00:10;;;;;;;0.60;0.50;;;;;;;24.50;88.43;99610.88;5005824;28;20511;-54
2021/07/25 09:02:37;;;;;;;0.40;0.30;;;;;;;24.63;86.48;99604.25;4992311;28;20445;-54
2021/07/25 09:05:07;;;;;;;2.43;2.00;;;;;;;24.87;84.66;99603.69;5005205;28;20498;-54
2021/07/25 09:07:34;;;;;;;0.40;0.30;;;;;;;24.55;83.27;99607.72;4991303;28;20453;-54
2021/07/25 09:10:04;;;;;;;2.83;0.80;;;;;;;24.57;84.94;99600.28;5005338;28;20482;-55
2021/07/25 09:12:32;;;;;;;1.03;1.03;;;;;;;25.00;84.98;99604.19;4992181;28;20921;-54
2021/07/25 09:15:05;;;;;;;0.40;0.30;;;;;;;24.88;85.93;99605.41;5011487;28;20484;-55
2021/07/25 09:17:32;;;;;;;0.40;0.20;;;;;;;24.95;83.21;99599.22;5011508;28;20448;-54
2021/07/25 09:20:14;;;;;;;0.40;0.30;;;;;;;25.64;82.47;99603.16;5011973;28;20472;-55
2021/07/25 09:22:51;;;;;;;0.40;0.30;;;;;;;25.41;82.57;99608.22;5026401;28;20481;-55
2021/07/25 09:25:20;;;;;;;1.70;0.83;;;;;;;25.01;83.83;99617.66;5002909;28;20496;-54
2021/07/25 09:27:56;;;;;;;0.50;0.50;;;;;;;25.16;81.35;99622.59;5009336;28;20949;-55
2021/07/25 09:30:25;;;;;;;0.73;0.73;;;;;;;25.04;81.45;99611.91;5001959;28;20469;-55
2021/07/25 09:32:54;;;;;;;0.57;0.50;;;;;;;25.21;81.07;99614.81;5001122;28;20452;-55
2021/07/25 09:35:47;;;;;;;0.40;0.23;;;;;;;25.72;80.37;99613.28;4999756;28;20514;-55
2021/07/25 09:38:14;;;;;;;0.70;0.60;;;;;;;25.53;80.28;99612.44;5005943;28;21020;-54
2021/07/25 09:40:43;;;;;;;1.03;1.03;;;;;;;25.93;81.11;99609.22;4997305;28;21066;-54
2021/07/25 09:43:23;;;;;;;0.93;0.93;;;;;;;26.01;82.49;99619.31;5005596;28;20452;-54
2021/07/25 09:45:50;;;;;;;0.40;0.20;;;;;;;25.99;79.97;99616.75;5002505;28;20448;-55
2021/07/25 09:48:37;;;;;;;0.57;0.57;;;;;;;25.91;80.24;99618.56;5001291;28;20552;-54
2021/07/25 09:51:16;;;;;;;0.50;0.40;;;;;;;26.44;79.57;99623.88;5003909;28;20493;-55
2021/07/25 09:53:46;;;;;;;0.50;0.30;;;;;;;25.85;79.07;99614.59;4996104;28;20443;-54
2021/07/25 09:56:20;;;;;;;0.40;0.30;;;;;;;25.92;78.04;99612.97;5007206;28;20460;-54
2021/07/25 09:58:47;;;;;;;0.40;0.30;;;;;;;26.19;76.36;99611.97;5006722;28;20469;-54
2021/07/25 10:01:39;;;;;;;0.60;0.57;;;;;;;26.18;76.37;99603.97;5006720;23;20497;-80
2021/07/25 10:04:13;;;;;;;0.40;0.27;;;;;;;26.77;76.10;99603.09;5004934;28;20468;-81
2021/07/25 10:06:41;;;;;;;0.70;0.70;;;;;;;26.81;74.65;99603.59;4995646;28;20897;-81
2021/07/25 10:09:10;;;;;;;2.30;2.20;;;;;;;26.66;71.00;99595.19;4994888;28;20457;-81
2021/07/25 10:11:40;;;;;;;0.40;0.30;;;;;;;26.50;72.54;99600.59;4994757;28;20917;-81
2021/07/25 10:14:06;;;;;;;0.40;0.30;;;;;;;26.59;72.71;99596.88;4994626;28;20493;-81
2021/07/25 10:16:33;;;;;;;0.80;0.80;;;;;;;25.78;72.98;99597.19;5001978;28;20449;-81
2021/07/25 10:19:04;;;;;;;0.40;0.30;;;;;;;26.19;72.74;99594.75;5003447;28;20461;-81
2021/07/25 10:21:33;;;;;;;0.83;0.50;;;;;;;26.18;71.08;99602.09;4997975;28;20485;-81
2021/07/25 10:24:01;;;;;;;0.50;0.40;;;;;;;26.15;72.11;99602.38;4995147;28;20458;-81
2021/07/25 10:26:29;;;;;;;0.40;0.30;;;;;;;26.19;70.54;99594.75;4996061;28;20453;-81
2021/07/25 10:28:57;;;;;;;0.40;0.30;;;;;;;27.17;71.40;99589.78;4996407;28;20449;-79
2021/07/25 10:31:25;;;;;;;0.50;0.50;;;;;;;26.91;67.49;99592.56;4996726;28;20453;-78
2021/07/25 10:33:53;;;;;;;0.40;0.30;;;;;;;26.90;68.75;99589.00;4991818;28;20458;-78
2021/07/25 10:36:23;;;;;;;0.40;0.30;;;;;;;27.49;66.69;99583.50;5010267;28;20974;-78
2021/07/25 10:38:50;;;;;;;1.13;1.13;;;;;;;27.59;66.52;99578.72;4995142;28;20835;-78
2021/07/25 10:41:21;;;;;;;0.40;0.30;;;;;;;27.72;66.50;99576.38;4995605;28;20432;-78
2021/07/25 10:43:48;;;;;;;0.40;0.30;;;;;;;27.86;68.66;99577.56;4995364;28;20454;-79
2021/07/25 10:46:14;;;;;;;0.50;0.30;;;;;;;27.89;65.51;99577.22;4993453;28;20528;-78
2021/07/25 10:49:09;;;;;;;0.40;0.30;;;;;;;27.88;66.64;99568.16;4996672;28;20775;-78
2021/07/25 10:51:53;;;;;;;0.70;0.70;;;;;;;27.94;64.89;99563.88;4989213;28;20531;-78
2021/07/25 10:54:23;;;;;;;0.50;0.33;;;;;;;27.59;65.59;99567.81;4994070;28;20548;-79
2021/07/25 10:56:59;;;;;;;0.40;0.30;;;;;;;28.00;64.58;99564.06;5010914;28;20458;-79
2021/07/25 10:59:48;;;;;;;0.40;0.30;;;;;;;28.53;66.05;99565.31;4997164;28;20474;-79
2021/07/25 11:02:26;;;;;;;0.40;0.30;;;;;;;28.22;59.51;99567.91;5009554;28;20469;-78
2021/07/25 11:04:53;;;;;;;0.40;0.30;;;;;;;28.02;61.56;99561.13;4995932;28;20469;-78
2021/07/25 11:07:23;;;;;;;5.07;1.47;;;;;;;28.55;58.70;99557.78;4995346;28;20513;-79
2021/07/25 11:10:13;;;;;;;0.50;0.30;;;;;;;27.82;61.26;99552.44;4998845;28;20517;-79
2021/07/25 11:12:51;;;;;;;0.40;0.23;;;;;;;28.07;63.13;99556.00;4988464;28;20964;-75
2021/07/25 11:15:34;;;;;;;0.40;0.27;;;;;;;28.01;61.42;99551.25;4992192;28;20978;-76
2021/07/25 11:18:06;;;;;;;0.40;0.30;;;;;;;28.00;62.84;99546.81;4992983;28;20454;-78
2021/07/25 11:20:39;;;;;;;0.63;0.63;;;;;;;28.25;58.37;99544.88;4991529;28;20462;-78
2021/07/25 11:23:36;;;;;;;0.50;0.40;;;;;;;28.54;61.57;99539.66;4993497;28;20896;-78
2021/07/25 11:26:32;;;;;;;0.40;0.30;;;;;;;28.36;61.09;99549.97;4989432;28;20473;-78
2021/07/25 11:29:07;;;;;;;0.40;0.30;;;;;;;28.20;58.46;99547.25;4987657;28;20512;-78
2021/07/25 11:31:46;;;;;;;0.50;0.40;;;;;;;28.20;57.83;99536.31;4992371;28;20950;-78
2021/07/25 11:34:24;;;;;;;0.40;0.30;;;;;;;27.93;56.37;99526.66;4994324;28;20423;-75
2021/07/25 11:36:55;;;;;;;0.50;0.40;;;;;;;28.58;57.33;99537.41;4988131;28;20507;-78
2021/07/25 11:39:22;;;;;;;0.70;0.70;;;;;;;28.82;57.41;99530.97;4994933;28;20516;-79
2021/07/25 11:41:49;;;;;;;0.50;0.30;;;;;;;28.12;56.20;99533.63;4994557;28;20458;-79